sensor_id;sensor_type;location;lat;lon;timestamp;temperature;humidity
1075;DHT22;526;51.392;12.448;2023-07-31T04:02:52;16.10;97.30
1075;DHT22;526;51.392;12.448;2023-07-31T04:05:20;16.10;97.30
1075;DHT22;526;51.392;12.448;2023-07-31T04:07:46;16.10;97.30
1075;DHT22;526;51.392;12.448;2023-07-31T04:10:12;16.00;97.30
1075;DHT22;526;51.392;12.448;2023-07-31T04:12:37;16.00;97.30
1075;DHT22;526;51.392;12.448;2023-07-31T04:15:03;16.00;97.30
1075;DHT22;526;51.392;12.448;2023-07-31T04:17:29;16.00;97.30
1075;DHT22;526;51.392;12.448;2023-07-31T04:19:54;15.90;97.30
1075;DHT22;526;51.392;12.448;2023-07-31T04:22:20;15.90;97.30
1075;DHT22;526;51.392;12.448;2023-07-31T04:24:45;15.90;97.30
1075;DHT22;526;51.392;12.448;2023-07-31T04:27:11;15.90;97.30
1075;DHT22;526;51.392;12.448;2023-07-31T04:29:36;15.90;97.30
1075;DHT22;526;51.392;12.448;2023-07-31T04:32:02;15.90;97.30
1075;DHT22;526;51.392;12.448;2023-07-31T04:34:27;15.90;97.30
1075;DHT22;526;51.392;12.448;2023-07-31T04:36:53;15.90;97.30
1075;DHT22;526;51.392;12.448;2023-07-31T04:39:18;15.90;97.30
1075;DHT22;526;51.392;12.448;2023-07-31T04:41:44;15.90;97.30
1075;DHT22;526;51.392;12.448;2023-07-31T04:44:09;15.80;97.30
1075;DHT22;526;51.392;12.448;2023-07-31T04:46:37;15.80;97.30
1075;DHT22;526;51.392;12.448;2023-07-31T04:49:03;15.80;97.30
1075;DHT22;526;51.392;12.448;2023-07-31T04:51:28;15.80;97.30
1075;DHT22;526;51.392;12.448;2023-07-31T04:53:54;15.70;97.30
1075;DHT22;526;51.392;12.448;2023-07-31T04:56:19;15.70;97.30
1075;DHT22;526;51.392;12.448;2023-07-31T04:58:45;15.70;97.30
1075;DHT22;526;51.392;12.448;2023-07-31T05:01:10;15.70;97.30
1075;DHT22;526;51.392;12.448;2023-07-31T05:03:36;15.70;97.30
1075;DHT22;526;51.392;12.448;2023-07-31T05:06:01;15.70;97.30
1075;DHT22;526;51.392;12.448;2023-07-31T05:08:27;15.70;97.30
1075;DHT22;526;51.392;12.448;2023-07-31T05:10:52;15.70;97.30
1075;DHT22;526;51.392;12.448;2023-07-31T05:13:18;15.70;97.30
1075;DHT22;526;51.392;12.448;2023-07-31T05:15:43;15.70;97.30
1075;DHT22;526;51.392;12.448;2023-07-31T05:18:09;15.70;97.30
1075;DHT22;526;51.392;12.448;2023-07-31T05:20:34;15.70;97.30
1075;DHT22;526;51.392;12.448;2023-07-31T05:23:00;15.60;97.30
1075;DHT22;526;51.392;12.448;2023-07-31T05:25:26;15.60;97.30
1075;DHT22;526;51.392;12.448;2023-07-31T05:27:51;15.60;97.30
1075;DHT22;526;51.392;12.448;2023-07-31T05:30:17;15.60;97.30
1075;DHT22;526;51.392;12.448;2023-07-31T05:32:42;15.60;97.30
1075;DHT22;526;51.392;12.448;2023-07-31T05:35:08;15.60;97.30
1075;DHT22;526;51.392;12.448;2023-07-31T05:37:34;15.60;97.30
1075;DHT22;526;51.392;12.448;2023-07-31T05:40:00;15.70;97.30
1075;DHT22;526;51.392;12.448;2023-07-31T05:42:25;15.60;97.30
1075;DHT22;526;51.392;12.448;2023-07-31T05:44:51;15.60;97.30
1075;DHT22;526;51.392;12.448;2023-07-31T05:47:16;15.70;97.30
1075;DHT22;526;51.392;12.448;2023-07-31T05:49:42;15.60;97.30
1075;DHT22;526;51.392;12.448;2023-07-31T05:52:07;15.70;97.30
1075;DHT22;526;51.392;12.448;2023-07-31T05:54:35;15.70;97.30
1075;DHT22;526;51.392;12.448;2023-07-31T05:57:01;15.70;97.30
1075;DHT22;526;51.392;12.448;2023-07-31T05:59:26;15.70;97.30
1075;DHT22;526;51.392;12.448;2023-07-31T06:01:52;15.70;97.30
1075;DHT22;526;51.392;12.448;2023-07-31T06:04:18;15.70;97.30
1075;DHT22;526;51.392;12.448;2023-07-31T06:06:43;15.70;97.30
1075;DHT22;526;51.392;12.448;2023-07-31T06:09:09;15.80;97.30
1075;DHT22;526;51.392;12.448;2023-07-31T06:11:34;15.80;97.30
1075;DHT22;526;51.392;12.448;2023-07-31T06:14:00;15.80;97.30
1075;DHT22;526;51.392;12.448;2023-07-31T06:16:25;15.80;97.30
1075;DHT22;526;51.392;12.448;2023-07-31T06:18:52;15.80;97.30
1075;DHT22;526;51.392;12.448;2023-07-31T06:21:17;15.80;97.30
1075;DHT22;526;51.392;12.448;2023-07-31T06:23:43;15.80;97.30
1075;DHT22;526;51.392;12.448;2023-07-31T06:26:09;15.90;97.30
1075;DHT22;526;51.392;12.448;2023-07-31T06:28:34;15.90;97.30
1075;DHT22;526;51.392;12.448;2023-07-31T06:31:00;15.90;97.30
1075;DHT22;526;51.392;12.448;2023-07-31T06:33:26;15.90;97.30
1075;DHT22;526;51.392;12.448;2023-07-31T06:35:52;15.90;97.30
1075;DHT22;526;51.392;12.448;2023-07-31T06:38:25;15.90;97.30
1075;DHT22;526;51.392;12.448;2023-07-31T06:40:50;16.00;97.30
1075;DHT22;526;51.392;12.448;2023-07-31T06:43:16;16.00;97.30
1075;DHT22;526;51.392;12.448;2023-07-31T06:45:41;16.00;97.30
1075;DHT22;526;51.392;12.448;2023-07-31T06:48:07;16.10;97.30
1075;DHT22;526;51.392;12.448;2023-07-31T06:50:33;16.10;97.30
1075;DHT22;526;51.392;12.448;2023-07-31T06:53:12;16.10;97.30
1075;DHT22;526;51.392;12.448;2023-07-31T06:55:40;16.10;97.30
1075;DHT22;526;51.392;12.448;2023-07-31T06:58:12;16.20;97.30
1075;DHT22;526;51.392;12.448;2023-07-31T07:00:40;16.20;97.30
1075;DHT22;526;51.392;12.448;2023-07-31T07:03:13;16.20;97.30
1075;DHT22;526;51.392;12.448;2023-07-31T07:05:40;16.20;97.30
1075;DHT22;526;51.392;12.448;2023-07-31T07:08:08;16.30;97.30
1075;DHT22;526;51.392;12.448;2023-07-31T07:10:34;16.30;97.30
1075;DHT22;526;51.392;12.448;2023-07-31T07:12:59;16.30;97.30
1075;DHT22;526;51.392;12.448;2023-07-31T07:15:25;16.30;97.30
1075;DHT22;526;51.392;12.448;2023-07-31T07:17:50;16.30;97.30
1075;DHT22;526;51.392;12.448;2023-07-31T07:20:16;16.30;97.30
1075;DHT22;526;51.392;12.448;2023-07-31T07:22:42;16.30;97.30
1075;DHT22;526;51.392;12.448;2023-07-31T07:25:08;16.30;97.30
1075;DHT22;526;51.392;12.448;2023-07-31T07:27:34;16.30;97.30
1075;DHT22;526;51.392;12.448;2023-07-31T07:30:00;16.40;97.30
1075;DHT22;526;51.392;12.448;2023-07-31T07:32:26;16.40;97.30
1075;DHT22;526;51.392;12.448;2023-07-31T07:34:51;16.40;97.30
1075;DHT22;526;51.392;12.448;2023-07-31T07:37:17;16.40;97.30
1075;DHT22;526;51.392;12.448;2023-07-31T07:39:43;16.50;97.30
1075;DHT22;526;51.392;12.448;2023-07-31T07:42:09;16.50;97.30
1075;DHT22;526;51.392;12.448;2023-07-31T07:44:35;16.50;97.30
1075;DHT22;526;51.392;12.448;2023-07-31T07:47:00;16.60;97.30
1075;DHT22;526;51.392;12.448;2023-07-31T07:49:26;16.60;97.30
1075;DHT22;526;51.392;12.448;2023-07-31T07:51:51;16.60;97.30
1075;DHT22;526;51.392;12.448;2023-07-31T07:54:17;16.70;97.30
1075;DHT22;526;51.392;12.448;2023-07-31T07:56:42;16.70;97.30
1075;DHT22;526;51.392;12.448;2023-07-31T07:59:08;16.80;97.30
1075;DHT22;526;51.392;12.448;2023-07-31T08:01:34;16.80;97.30
1075;DHT22;526;51.392;12.448;2023-07-31T08:04:00;16.80;97.30
1075;DHT22;526;51.392;12.448;2023-07-31T08:06:26;16.90;97.30
1075;DHT22;526;51.392;12.448;2023-07-31T08:08:51;16.90;97.30
1075;DHT22;526;51.392;12.448;2023-07-31T08:11:17;17.00;97.30
1075;DHT22;526;51.392;12.448;2023-07-31T08:13:43;17.00;97.30
1075;DHT22;526;51.392;12.448;2023-07-31T08:16:08;17.00;97.30
1075;DHT22;526;51.392;12.448;2023-07-31T08:18:35;17.00;97.30
1075;DHT22;526;51.392;12.448;2023-07-31T08:21:02;17.00;97.30
1075;DHT22;526;51.392;12.448;2023-07-31T08:23:28;17.00;97.30
1075;DHT22;526;51.392;12.448;2023-07-31T08:25:53;17.10;97.30
1075;DHT22;526;51.392;12.448;2023-07-31T08:28:19;17.10;97.30
1075;DHT22;526;51.392;12.448;2023-07-31T08:30:45;17.10;97.30
1075;DHT22;526;51.392;12.448;2023-07-31T08:33:10;17.10;97.30
1075;DHT22;526;51.392;12.448;2023-07-31T08:35:36;17.10;97.30
1075;DHT22;526;51.392;12.448;2023-07-31T08:38:02;17.20;97.30
1075;DHT22;526;51.392;12.448;2023-07-31T08:40:28;17.20;97.30
1075;DHT22;526;51.392;12.448;2023-07-31T08:42:55;17.20;97.30
1075;DHT22;526;51.392;12.448;2023-07-31T08:45:28;17.30;97.30
1075;DHT22;526;51.392;12.448;2023-07-31T08:47:55;17.30;97.30
1075;DHT22;526;51.392;12.448;2023-07-31T08:50:21;17.30;97.30
1075;DHT22;526;51.392;12.448;2023-07-31T08:52:48;17.40;97.30
1075;DHT22;526;51.392;12.448;2023-07-31T08:55:14;17.40;97.30
1075;DHT22;526;51.392;12.448;2023-07-31T08:57:41;17.40;97.30
1075;DHT22;526;51.392;12.448;2023-07-31T09:00:09;17.50;97.30
1075;DHT22;526;51.392;12.448;2023-07-31T09:02:38;17.50;97.30
1075;DHT22;526;51.392;12.448;2023-07-31T09:05:07;17.60;97.30
1075;DHT22;526;51.392;12.448;2023-07-31T09:07:36;17.60;97.30
1075;DHT22;526;51.392;12.448;2023-07-31T09:10:03;17.70;97.30
1075;DHT22;526;51.392;12.448;2023-07-31T09:12:29;17.70;97.30
1075;DHT22;526;51.392;12.448;2023-07-31T09:14:58;17.70;97.30
1075;DHT22;526;51.392;12.448;2023-07-31T09:17:35;17.80;97.30
1075;DHT22;526;51.392;12.448;2023-07-31T09:20:20;17.80;97.30
1075;DHT22;526;51.392;12.448;2023-07-31T09:22:47;17.90;97.30
1075;DHT22;526;51.392;12.448;2023-07-31T09:25:18;17.90;97.30
1075;DHT22;526;51.392;12.448;2023-07-31T09:30:14;17.90;97.30
1075;DHT22;526;51.392;12.448;2023-07-31T09:32:39;18.00;97.30
1075;DHT22;526;51.392;12.448;2023-07-31T09:37:48;18.00;97.30
1075;DHT22;526;51.392;12.448;2023-07-31T09:40:25;18.00;97.30
1075;DHT22;526;51.392;12.448;2023-07-31T09:42:51;18.00;97.30
1075;DHT22;526;51.392;12.448;2023-07-31T09:45:18;18.00;97.30
1075;DHT22;526;51.392;12.448;2023-07-31T09:47:47;18.00;97.30
1075;DHT22;526;51.392;12.448;2023-07-31T09:50:16;18.10;97.30
1075;DHT22;526;51.392;12.448;2023-07-31T09:52:42;18.10;97.30
1075;DHT22;526;51.392;12.448;2023-07-31T09:55:09;18.10;97.30
1075;DHT22;526;51.392;12.448;2023-07-31T09:57:40;18.20;97.30
1075;DHT22;526;51.392;12.448;2023-07-31T10:00:06;18.20;97.30
1075;DHT22;526;51.392;12.448;2023-07-31T10:02:34;18.20;97.30
1075;DHT22;526;51.392;12.448;2023-07-31T10:05:02;18.30;97.30
1075;DHT22;526;51.392;12.448;2023-07-31T10:07:30;18.30;97.30
1075;DHT22;526;51.392;12.448;2023-07-31T10:09:59;18.30;97.30
1075;DHT22;526;51.392;12.448;2023-07-31T10:12:26;18.30;97.30
1075;DHT22;526;51.392;12.448;2023-07-31T10:14:55;18.40;97.30
1075;DHT22;526;51.392;12.448;2023-07-31T10:17:25;18.40;97.30
1075;DHT22;526;51.392;12.448;2023-07-31T10:19:51;18.40;97.30
1075;DHT22;526;51.392;12.448;2023-07-31T10:22:20;18.50;97.30
1075;DHT22;526;51.392;12.448;2023-07-31T10:24:46;18.50;97.30
1075;DHT22;526;51.392;12.448;2023-07-31T10:27:13;18.60;97.30
1075;DHT22;526;51.392;12.448;2023-07-31T10:29:40;18.70;97.30
1075;DHT22;526;51.392;12.448;2023-07-31T10:32:09;18.80;97.30
1075;DHT22;526;51.392;12.448;2023-07-31T10:34:48;18.90;97.30
1075;DHT22;526;51.392;12.448;2023-07-31T10:37:37;18.90;97.30
1075;DHT22;526;51.392;12.448;2023-07-31T10:40:13;19.00;97.30
1075;DHT22;526;51.392;12.448;2023-07-31T10:42:49;19.00;97.30
1075;DHT22;526;51.392;12.448;2023-07-31T10:45:35;19.00;97.30
1075;DHT22;526;51.392;12.448;2023-07-31T10:48:16;19.00;97.30
1075;DHT22;526;51.392;12.448;2023-07-31T10:53:31;19.00;97.30
1075;DHT22;526;51.392;12.448;2023-07-31T10:56:02;19.10;97.30
1075;DHT22;526;51.392;12.448;2023-07-31T10:58:27;19.10;97.30
1075;DHT22;526;51.392;12.448;2023-07-31T11:00:58;19.20;97.30
1075;DHT22;526;51.392;12.448;2023-07-31T11:03:50;19.20;97.30
1075;DHT22;526;51.392;12.448;2023-07-31T11:06:16;19.30;97.30
1075;DHT22;526;51.392;12.448;2023-07-31T11:08:43;19.40;97.30
1075;DHT22;526;51.392;12.448;2023-07-31T11:11:12;19.50;97.30
1075;DHT22;526;51.392;12.448;2023-07-31T11:13:49;19.60;97.30
1075;DHT22;526;51.392;12.448;2023-07-31T11:16:16;19.70;97.30
1075;DHT22;526;51.392;12.448;2023-07-31T11:18:43;19.80;97.30
1075;DHT22;526;51.392;12.448;2023-07-31T11:21:20;19.90;97.30
1075;DHT22;526;51.392;12.448;2023-07-31T11:23:50;20.10;97.30
1075;DHT22;526;51.392;12.448;2023-07-31T11:26:17;20.20;97.30
1075;DHT22;526;51.392;12.448;2023-07-31T11:28:42;20.30;97.30
1075;DHT22;526;51.392;12.448;2023-07-31T11:31:09;20.50;97.30
1075;DHT22;526;51.392;12.448;2023-07-31T11:33:36;20.60;97.30
1075;DHT22;526;51.392;12.448;2023-07-31T11:36:01;20.70;97.30
1075;DHT22;526;51.392;12.448;2023-07-31T11:38:31;20.70;97.30
1075;DHT22;526;51.392;12.448;2023-07-31T11:41:02;20.70;97.30
1075;DHT22;526;51.392;12.448;2023-07-31T11:43:29;20.70;97.30
1075;DHT22;526;51.392;12.448;2023-07-31T11:45:57;20.70;97.30
1075;DHT22;526;51.392;12.448;2023-07-31T11:48:28;20.80;97.30
1075;DHT22;526;51.392;12.448;2023-07-31T11:50:58;20.80;97.30
1075;DHT22;526;51.392;12.448;2023-07-31T11:53:45;20.80;97.30
1075;DHT22;526;51.392;12.448;2023-07-31T11:56:17;20.80;97.30
1075;DHT22;526;51.392;12.448;2023-07-31T11:58:45;20.80;97.30
1075;DHT22;526;51.392;12.448;2023-07-31T12:01:11;20.80;97.30
1075;DHT22;526;51.392;12.448;2023-07-31T12:03:37;20.80;97.30
1075;DHT22;526;51.392;12.448;2023-07-31T12:06:03;20.80;97.30
1075;DHT22;526;51.392;12.448;2023-07-31T12:08:30;20.80;97.30
1075;DHT22;526;51.392;12.448;2023-07-31T12:11:03;20.90;97.30
1075;DHT22;526;51.392;12.448;2023-07-31T12:13:31;20.90;97.30
1075;DHT22;526;51.392;12.448;2023-07-31T12:15:59;20.90;97.30
1075;DHT22;526;51.392;12.448;2023-07-31T12:18:27;21.00;97.30
1075;DHT22;526;51.392;12.448;2023-07-31T12:21:00;21.00;97.30
1075;DHT22;526;51.392;12.448;2023-07-31T12:23:28;20.90;97.30
1075;DHT22;526;51.392;12.448;2023-07-31T12:26:11;20.90;97.30
1075;DHT22;526;51.392;12.448;2023-07-31T12:28:41;20.90;97.30
1075;DHT22;526;51.392;12.448;2023-07-31T12:31:19;20.90;97.30
1075;DHT22;526;51.392;12.448;2023-07-31T12:33:46;20.90;97.20
1075;DHT22;526;51.392;12.448;2023-07-31T12:36:23;21.00;97.30
1075;DHT22;526;51.392;12.448;2023-07-31T12:38:52;21.00;96.80
1075;DHT22;526;51.392;12.448;2023-07-31T12:41:18;21.10;97.30
1075;DHT22;526;51.392;12.448;2023-07-31T12:43:45;21.20;97.30
1075;DHT22;526;51.392;12.448;2023-07-31T12:46:11;21.40;97.30
1075;DHT22;526;51.392;12.448;2023-07-31T12:48:39;21.70;97.00
1075;DHT22;526;51.392;12.448;2023-07-31T12:51:06;21.90;95.90
1075;DHT22;526;51.392;12.448;2023-07-31T12:53:34;22.10;95.60
1075;DHT22;526;51.392;12.448;2023-07-31T12:56:01;22.20;95.10
1075;DHT22;526;51.392;12.448;2023-07-31T12:58:29;22.10;94.10
1075;DHT22;526;51.392;12.448;2023-07-31T13:00:55;22.00;94.60
1075;DHT22;526;51.392;12.448;2023-07-31T13:03:20;21.90;94.70
1075;DHT22;526;51.392;12.448;2023-07-31T13:05:46;21.80;94.80
1075;DHT22;526;51.392;12.448;2023-07-31T13:08:11;21.80;94.90
1075;DHT22;526;51.392;12.448;2023-07-31T13:10:37;21.80;95.20
1075;DHT22;526;51.392;12.448;2023-07-31T13:13:02;21.70;94.70
1075;DHT22;526;51.392;12.448;2023-07-31T13:15:28;21.70;95.90
1075;DHT22;526;51.392;12.448;2023-07-31T13:17:54;21.70;96.00
1075;DHT22;526;51.392;12.448;2023-07-31T13:20:19;21.70;96.00
1075;DHT22;526;51.392;12.448;2023-07-31T13:22:45;21.80;95.90
1075;DHT22;526;51.392;12.448;2023-07-31T13:25:10;21.80;95.90
1075;DHT22;526;51.392;12.448;2023-07-31T13:27:37;21.80;95.70
1075;DHT22;526;51.392;12.448;2023-07-31T13:30:05;21.80;96.20
1075;DHT22;526;51.392;12.448;2023-07-31T13:32:31;21.80;95.90
1075;DHT22;526;51.392;12.448;2023-07-31T13:34:58;21.80;94.20
1075;DHT22;526;51.392;12.448;2023-07-31T13:37:24;22.00;93.60
1075;DHT22;526;51.392;12.448;2023-07-31T13:39:49;22.00;93.40
1075;DHT22;526;51.392;12.448;2023-07-31T13:42:15;22.10;92.30
1075;DHT22;526;51.392;12.448;2023-07-31T13:44:41;22.20;92.30
1075;DHT22;526;51.392;12.448;2023-07-31T13:47:08;22.20;91.80
1075;DHT22;526;51.392;12.448;2023-07-31T13:49:34;22.10;90.80
1075;DHT22;526;51.392;12.448;2023-07-31T13:52:01;22.10;91.70
1075;DHT22;526;51.392;12.448;2023-07-31T13:54:26;22.10;92.00
1075;DHT22;526;51.392;12.448;2023-07-31T13:56:52;22.00;92.40
1075;DHT22;526;51.392;12.448;2023-07-31T13:59:18;22.00;92.90
1075;DHT22;526;51.392;12.448;2023-07-31T14:01:44;22.00;91.80
1075;DHT22;526;51.392;12.448;2023-07-31T14:04:11;22.00;91.80
1075;DHT22;526;51.392;12.448;2023-07-31T14:06:36;22.00;92.30
1075;DHT22;526;51.392;12.448;2023-07-31T14:09:02;21.90;91.90
1075;DHT22;526;51.392;12.448;2023-07-31T14:11:28;21.90;92.10
1075;DHT22;526;51.392;12.448;2023-07-31T14:13:55;21.80;92.20
1075;DHT22;526;51.392;12.448;2023-07-31T14:16:21;21.80;92.60
1075;DHT22;526;51.392;12.448;2023-07-31T14:18:47;21.70;92.60
1075;DHT22;526;51.392;12.448;2023-07-31T14:21:13;21.70;93.00
1075;DHT22;526;51.392;12.448;2023-07-31T14:23:38;21.60;93.30
1075;DHT22;526;51.392;12.448;2023-07-31T14:26:04;21.60;93.90
1075;DHT22;526;51.392;12.448;2023-07-31T14:28:29;21.60;94.20
1075;DHT22;526;51.392;12.448;2023-07-31T14:30:55;21.60;94.10
1075;DHT22;526;51.392;12.448;2023-07-31T14:33:20;21.60;93.90
1075;DHT22;526;51.392;12.448;2023-07-31T14:35:46;21.60;93.70
1075;DHT22;526;51.392;12.448;2023-07-31T14:38:12;21.60;94.10
1075;DHT22;526;51.392;12.448;2023-07-31T14:40:37;21.60;93.80
1075;DHT22;526;51.392;12.448;2023-07-31T14:43:05;21.70;94.00
1075;DHT22;526;51.392;12.448;2023-07-31T14:45:30;21.70;94.10
1075;DHT22;526;51.392;12.448;2023-07-31T14:47:56;21.70;94.10
1075;DHT22;526;51.392;12.448;2023-07-31T14:50:21;21.70;94.10
1075;DHT22;526;51.392;12.448;2023-07-31T14:52:48;21.60;93.40
1075;DHT22;526;51.392;12.448;2023-07-31T14:55:14;21.60;93.60
1075;DHT22;526;51.392;12.448;2023-07-31T14:57:40;21.60;93.50
1075;DHT22;526;51.392;12.448;2023-07-31T15:00:06;21.60;93.30
1075;DHT22;526;51.392;12.448;2023-07-31T15:02:34;21.60;93.20
1075;DHT22;526;51.392;12.448;2023-07-31T15:05:01;21.60;92.80
1075;DHT22;526;51.392;12.448;2023-07-31T15:07:26;21.60;92.70
1075;DHT22;526;51.392;12.448;2023-07-31T15:09:52;21.60;92.40
1075;DHT22;526;51.392;12.448;2023-07-31T15:12:17;21.60;92.50
1075;DHT22;526;51.392;12.448;2023-07-31T15:14:43;21.60;92.40
1075;DHT22;526;51.392;12.448;2023-07-31T15:17:10;21.60;92.40
1075;DHT22;526;51.392;12.448;2023-07-31T15:19:36;21.60;92.50
1075;DHT22;526;51.392;12.448;2023-07-31T15:22:03;21.60;92.30
1075;DHT22;526;51.392;12.448;2023-07-31T15:24:29;21.60;92.00
1075;DHT22;526;51.392;12.448;2023-07-31T15:26:54;21.60;92.50
1075;DHT22;526;51.392;12.448;2023-07-31T15:29:21;21.60;92.80
1075;DHT22;526;51.392;12.448;2023-07-31T15:31:48;21.60;92.70
1075;DHT22;526;51.392;12.448;2023-07-31T15:34:14;21.60;92.40
1075;DHT22;526;51.392;12.448;2023-07-31T15:36:41;21.60;92.70
1075;DHT22;526;51.392;12.448;2023-07-31T15:39:07;21.60;92.80
1075;DHT22;526;51.392;12.448;2023-07-31T15:41:37;21.60;92.80
1075;DHT22;526;51.392;12.448;2023-07-31T15:44:06;21.60;92.80
1075;DHT22;526;51.392;12.448;2023-07-31T15:46:31;21.60;92.90
1075;DHT22;526;51.392;12.448;2023-07-31T15:48:57;21.50;92.70
1075;DHT22;526;51.392;12.448;2023-07-31T15:51:23;21.50;92.70
1075;DHT22;526;51.392;12.448;2023-07-31T15:53:50;21.50;92.90
1075;DHT22;526;51.392;12.448;2023-07-31T15:56:16;21.50;93.50
1075;DHT22;526;51.392;12.448;2023-07-31T15:58:42;21.50;93.30
1075;DHT22;526;51.392;12.448;2023-07-31T16:01:08;21.50;93.30
1075;DHT22;526;51.392;12.448;2023-07-31T16:03:33;21.50;93.40
1075;DHT22;526;51.392;12.448;2023-07-31T16:05:59;21.50;93.50
1075;DHT22;526;51.392;12.448;2023-07-31T16:08:24;21.50;93.70
1075;DHT22;526;51.392;12.448;2023-07-31T16:10:50;21.50;93.90
1075;DHT22;526;51.392;12.448;2023-07-31T16:13:16;21.50;93.50
1075;DHT22;526;51.392;12.448;2023-07-31T16:15:42;21.50;93.50
1075;DHT22;526;51.392;12.448;2023-07-31T16:18:07;21.50;93.60
1075;DHT22;526;51.392;12.448;2023-07-31T16:20:33;21.50;93.80
1075;DHT22;526;51.392;12.448;2023-07-31T16:22:58;21.50;93.70
1075;DHT22;526;51.392;12.448;2023-07-31T16:25:24;21.50;93.70
1075;DHT22;526;51.392;12.448;2023-07-31T16:27:49;21.50;93.60
1075;DHT22;526;51.392;12.448;2023-07-31T16:30:15;21.50;93.90
1075;DHT22;526;51.392;12.448;2023-07-31T16:32:41;21.50;93.90
1075;DHT22;526;51.392;12.448;2023-07-31T16:35:06;21.50;93.70
1075;DHT22;526;51.392;12.448;2023-07-31T16:37:32;21.50;93.70
1075;DHT22;526;51.392;12.448;2023-07-31T16:39:58;21.50;93.70
1075;DHT22;526;51.392;12.448;2023-07-31T16:42:24;21.50;93.40
1075;DHT22;526;51.392;12.448;2023-07-31T16:44:49;21.60;93.60
1075;DHT22;526;51.392;12.448;2023-07-31T16:47:15;21.60;93.40
1075;DHT22;526;51.392;12.448;2023-07-31T16:49:41;21.60;93.50
1075;DHT22;526;51.392;12.448;2023-07-31T16:52:07;21.60;93.70
1075;DHT22;526;51.392;12.448;2023-07-31T16:54:33;21.60;93.40
1075;DHT22;526;51.392;12.448;2023-07-31T16:57:00;21.60;93.80
1075;DHT22;526;51.392;12.448;2023-07-31T16:59:26;21.60;93.70
1075;DHT22;526;51.392;12.448;2023-07-31T17:01:52;21.70;94.00
1075;DHT22;526;51.392;12.448;2023-07-31T17:04:18;21.70;93.90
1075;DHT22;526;51.392;12.448;2023-07-31T17:06:43;21.70;94.00
1075;DHT22;526;51.392;12.448;2023-07-31T17:09:10;21.70;93.60
1075;DHT22;526;51.392;12.448;2023-07-31T17:11:36;21.70;93.80
1075;DHT22;526;51.392;12.448;2023-07-31T17:14:02;21.60;94.00
1075;DHT22;526;51.392;12.448;2023-07-31T17:16:31;21.60;93.90
1075;DHT22;526;51.392;12.448;2023-07-31T17:19:00;21.60;94.20
1075;DHT22;526;51.392;12.448;2023-07-31T17:21:26;21.60;93.90
1075;DHT22;526;51.392;12.448;2023-07-31T17:23:52;21.60;94.10
1075;DHT22;526;51.392;12.448;2023-07-31T17:26:18;21.60;94.40
1075;DHT22;526;51.392;12.448;2023-07-31T17:28:43;21.60;94.50
1075;DHT22;526;51.392;12.448;2023-07-31T17:31:09;21.50;94.50
1075;DHT22;526;51.392;12.448;2023-07-31T17:33:36;21.50;94.40
1075;DHT22;526;51.392;12.448;2023-07-31T17:36:02;21.50;94.60
1075;DHT22;526;51.392;12.448;2023-07-31T17:38:28;21.50;94.70
1075;DHT22;526;51.392;12.448;2023-07-31T17:40:53;21.50;94.50
1075;DHT22;526;51.392;12.448;2023-07-31T17:43:19;21.50;94.80
1075;DHT22;526;51.392;12.448;2023-07-31T17:45:45;21.40;94.50
1075;DHT22;526;51.392;12.448;2023-07-31T17:48:10;21.40;94.70
1075;DHT22;526;51.392;12.448;2023-07-31T17:50:36;21.40;94.70
1075;DHT22;526;51.392;12.448;2023-07-31T17:53:02;21.40;94.60
1075;DHT22;526;51.392;12.448;2023-07-31T17:55:28;21.40;94.70
1075;DHT22;526;51.392;12.448;2023-07-31T17:57:54;21.40;94.30
1075;DHT22;526;51.392;12.448;2023-07-31T18:00:20;21.40;94.20
1075;DHT22;526;51.392;12.448;2023-07-31T18:02:48;21.40;94.50
1075;DHT22;526;51.392;12.448;2023-07-31T18:05:13;21.40;94.40
1075;DHT22;526;51.392;12.448;2023-07-31T18:07:39;21.40;94.40
1075;DHT22;526;51.392;12.448;2023-07-31T18:10:05;21.30;94.30
1075;DHT22;526;51.392;12.448;2023-07-31T18:12:32;21.30;94.30
1075;DHT22;526;51.392;12.448;2023-07-31T18:14:58;21.30;94.40
1075;DHT22;526;51.392;12.448;2023-07-31T18:17:24;21.30;94.50
1075;DHT22;526;51.392;12.448;2023-07-31T18:19:51;21.30;94.50
1075;DHT22;526;51.392;12.448;2023-07-31T18:22:16;21.30;94.40
1075;DHT22;526;51.392;12.448;2023-07-31T18:24:43;21.30;94.50
1075;DHT22;526;51.392;12.448;2023-07-31T18:27:09;21.30;94.40
1075;DHT22;526;51.392;12.448;2023-07-31T18:29:34;21.30;94.50
1075;DHT22;526;51.392;12.448;2023-07-31T18:32:01;21.20;94.70
1075;DHT22;526;51.392;12.448;2023-07-31T18:34:29;21.20;94.70
1075;DHT22;526;51.392;12.448;2023-07-31T18:36:54;21.20;94.70
1075;DHT22;526;51.392;12.448;2023-07-31T18:39:20;21.20;94.80
1075;DHT22;526;51.392;12.448;2023-07-31T18:41:45;21.20;94.80
1075;DHT22;526;51.392;12.448;2023-07-31T18:44:11;21.20;94.80
1075;DHT22;526;51.392;12.448;2023-07-31T18:46:37;21.20;95.00
1075;DHT22;526;51.392;12.448;2023-07-31T18:49:02;21.10;95.00
1075;DHT22;526;51.392;12.448;2023-07-31T18:51:28;21.10;95.00
1075;DHT22;526;51.392;12.448;2023-07-31T18:53:55;21.10;95.00
1075;DHT22;526;51.392;12.448;2023-07-31T18:56:20;21.10;94.90
1075;DHT22;526;51.392;12.448;2023-07-31T18:58:46;21.10;95.00
1075;DHT22;526;51.392;12.448;2023-07-31T19:01:14;21.10;95.10
1075;DHT22;526;51.392;12.448;2023-07-31T19:03:39;21.00;95.20
1075;DHT22;526;51.392;12.448;2023-07-31T19:06:05;21.10;95.30
1075;DHT22;526;51.392;12.448;2023-07-31T19:08:31;21.10;95.50
1075;DHT22;526;51.392;12.448;2023-07-31T19:10:57;21.00;95.50
1075;DHT22;526;51.392;12.448;2023-07-31T19:13:24;21.00;95.60
1075;DHT22;526;51.392;12.448;2023-07-31T19:15:50;21.00;95.70
1075;DHT22;526;51.392;12.448;2023-07-31T19:18:15;21.00;95.60
1075;DHT22;526;51.392;12.448;2023-07-31T19:20:42;21.00;95.80
1075;DHT22;526;51.392;12.448;2023-07-31T19:23:08;21.00;95.90
1075;DHT22;526;51.392;12.448;2023-07-31T19:25:33;20.90;96.00
1075;DHT22;526;51.392;12.448;2023-07-31T19:27:59;20.90;96.00
1075;DHT22;526;51.392;12.448;2023-07-31T19:30:25;20.90;95.90
1075;DHT22;526;51.392;12.448;2023-07-31T19:32:51;20.90;95.90
1075;DHT22;526;51.392;12.448;2023-07-31T19:35:17;20.90;95.80
1075;DHT22;526;51.392;12.448;2023-07-31T19:37:43;20.90;95.70
1075;DHT22;526;51.392;12.448;2023-07-31T19:40:09;20.90;95.90
1075;DHT22;526;51.392;12.448;2023-07-31T19:42:35;20.90;95.80
1075;DHT22;526;51.392;12.448;2023-07-31T19:45:05;20.90;95.80
1075;DHT22;526;51.392;12.448;2023-07-31T19:47:30;20.80;95.70
1075;DHT22;526;51.392;12.448;2023-07-31T19:49:57;20.80;95.90
1075;DHT22;526;51.392;12.448;2023-07-31T19:52:23;20.80;96.00
1075;DHT22;526;51.392;12.448;2023-07-31T19:54:48;20.80;95.90
1075;DHT22;526;51.392;12.448;2023-07-31T19:57:14;20.80;95.80
1075;DHT22;526;51.392;12.448;2023-07-31T19:59:39;20.80;96.10
1075;DHT22;526;51.392;12.448;2023-07-31T20:02:07;20.80;96.00
1075;DHT22;526;51.392;12.448;2023-07-31T20:04:33;20.80;95.80
1075;DHT22;526;51.392;12.448;2023-07-31T20:06:58;20.80;95.80
1075;DHT22;526;51.392;12.448;2023-07-31T20:09:24;20.80;95.80